Time;durP1;ratioP1;P1;durP2;ratioP2;P2;SDS_P1;SDS_P2;PMS_P1;PMS_P2;Temp;Humidity;BMP_temperature;BMP_pressure;BME280_temperature;BME280_humidity;BME280_pressure;Samples;Min_cycle;Max_cycle;Signal;HPM_P1;HPM_P2
2022/09/27 00:02:01;;;;;;;9.30;1.35;;;10.30;99.90;;;;;;5052759;28;20044;-69
2022/09/27 00:04:26;;;;;;;5.80;1.10;;;10.40;99.90;;;;;;5052148;28;20484;-68
2022/09/27 00:06:52;;;;;;;6.80;1.23;;;10.30;99.90;;;;;;5034609;28;20493;-71
2022/09/27 00:09:18;;;;;;;7.70;1.38;;;10.30;99.90;;;;;;5052625;28;20064;-70
2022/09/27 00:11:44;;;;;;;6.80;1.50;;;10.30;99.90;;;;;;5034472;28;20057;-69
2022/09/27 00:14:15;;;;;;;6.32;1.73;;;10.30;99.90;;;;;;5034416;28;20060;-69
2022/09/27 00:17:30;;;;;;;7.38;1.40;;;10.30;99.90;;;;;;5034257;28;20052;-68
2022/09/27 00:19:58;;;;;;;6.43;1.20;;;10.30;99.90;;;;;;5052007;28;20075;-69
2022/09/27 00:22:25;;;;;;;8.82;1.20;;;10.30;99.90;;;;;;5052618;23;20060;-69
2022/09/27 00:32:18;;;;;;;4.13;1.10;;;10.20;99.90;;;;;;5200994;23;20054;-68
2022/09/27 00:34:44;;;;;;;4.88;1.30;;;10.30;99.90;;;;;;4998785;28;20054;-69
2022/09/27 00:37:10;;;;;;;3.05;1.45;;;10.20;99.90;;;;;;5014531;28;20042;-68
2022/09/27 00:39:38;;;;;;;6.93;1.10;;;10.20;99.90;;;;;;5015238;28;20133;-67
2022/09/27 00:42:05;;;;;;;6.35;1.13;;;10.10;99.90;;;;;;5015505;28;20049;-72
2022/09/27 00:44:32;;;;;;;3.95;0.60;;;10.10;99.90;;;;;;5016698;28;20041;-70
2022/09/27 00:47:02;;;;;;;4.40;0.77;;;10.10;99.90;;;;;;5015403;28;20075;-68
2022/09/27 00:49:42;;;;;;;3.80;0.90;;;10.10;99.90;;;;;;5016087;28;20120;-68
2022/09/27 00:52:13;;;;;;;2.80;0.70;;;10.00;99.90;;;;;;5014947;28;20503;-68
2022/09/27 00:54:43;;;;;;;6.32;1.20;;;10.00;99.90;;;;;;5014981;28;20084;-69
2022/09/27 00:57:09;;;;;;;5.90;1.20;;;9.90;99.90;;;;;;5016645;28;20042;-68
2022/09/27 00:59:40;;;;;;;5.30;1.00;;;10.20;99.90;;;;;;5016665;28;20053;-69
2022/09/27 01:02:06;;;;;;;5.40;1.00;;;10.10;99.90;;;;;;5015436;28;20045;-67
2022/09/27 01:04:33;;;;;;;3.30;0.70;;;9.80;99.90;;;;;;4998596;28;20050;-69
2022/09/27 01:06:59;;;;;;;3.22;0.90;;;9.80;99.90;;;;;;5014335;28;20057;-66
2022/09/27 01:09:25;;;;;;;5.53;0.80;;;9.70;99.90;;;;;;5015064;28;20397;-69
2022/09/27 01:12:16;;;;;;;2.55;0.80;;;9.70;99.90;;;;;;5014801;28;20042;-71
2022/09/27 01:14:51;;;;;;;1.45;0.50;;;9.60;99.90;;;;;;5014837;28;20054;-71
2022/09/27 01:18:04;;;;;;;3.90;0.88;;;9.60;99.90;;;;;;5014700;28;20057;-73
2022/09/27 01:20:35;;;;;;;;;;;9.60;99.90;;;;;;5005384;28;20053;-70
2022/09/27 01:23:38;;;;;;;5.28;0.80;;;9.50;99.90;;;;;;5015779;28;20040;-70
2022/09/27 01:26:46;;;;;;;4.47;0.75;;;9.50;99.90;;;;;;5016224;28;20053;-70
2022/09/27 01:29:42;;;;;;;1.98;0.55;;;9.50;99.90;;;;;;5014365;28;20060;-70
2022/09/27 01:32:34;;;;;;;4.93;0.82;;;9.50;99.90;;;;;;5014108;28;20058;-70
2022/09/27 01:35:20;;;;;;;3.63;0.68;;;9.40;99.90;;;;;;5014789;28;20133;-71
2022/09/27 01:38:01;;;;;;;2.38;0.60;;;9.40;99.90;;;;;;5014047;28;20104;-70
2022/09/27 01:40:39;;;;;;;3.30;0.77;;;9.50;99.90;;;;;;5015528;28;20508;-70
2022/09/27 01:43:41;;;;;;;4.22;0.82;;;9.40;99.90;;;;;;5015614;28;20038;-68
2022/09/27 01:46:10;;;;;;;5.82;0.73;;;9.50;99.90;;;;;;4935614;29;20118;-70
2022/09/27 01:48:43;;;;;;;3.80;0.80;;;9.40;99.90;;;;;;4919913;29;20079;-70
2022/09/27 01:51:27;;;;;;;3.15;0.70;;;9.40;99.90;;;;;;4935546;29;20130;-69
2022/09/27 01:53:58;;;;;;;5.50;1.10;;;9.40;99.90;;;;;;4919357;29;20503;-68
2022/09/27 01:56:40;;;;;;;7.78;0.75;;;9.40;99.90;;;;;;4935948;29;20099;-70
2022/09/27 01:59:12;;;;;;;4.22;0.85;;;9.30;99.90;;;;;;4919707;29;20158;-69
2022/09/27 02:01:40;;;;;;;3.67;1.02;;;9.40;99.90;;;;;;4919711;29;20059;-70
2022/09/27 02:04:10;;;;;;;2.15;0.75;;;9.50;99.90;;;;;;4920065;29;20114;-70
2022/09/27 02:06:41;;;;;;;3.15;0.63;;;9.50;99.90;;;;;;4935746;29;20048;-71
2022/09/27 02:09:22;;;;;;;3.40;0.88;;;9.40;99.90;;;;;;4918871;29;20094;-70
2022/09/27 02:11:54;;;;;;;7.43;0.90;;;9.40;99.90;;;;;;4935336;29;20602;-69
2022/09/27 02:14:20;;;;;;;;;;;9.40;99.90;;;;;;4919644;29;20056;-69
2022/09/27 02:17:20;;;;;;;3.35;0.63;;;9.50;99.90;;;;;;4919536;29;19923;-71
2022/09/27 02:19:54;;;;;;;3.40;0.70;;;9.40;99.90;;;;;;4881620;29;20056;-68
2022/09/27 02:22:32;;;;;;;3.70;0.80;;;9.50;99.90;;;;;;4973595;28;20100;-71
2022/09/27 02:25:06;;;;;;;3.42;0.68;;;9.50;99.90;;;;;;4976276;28;20046;-70
2022/09/27 02:27:53;;;;;;;4.13;0.70;;;9.50;99.90;;;;;;4992901;28;20117;-69
2022/09/27 02:30:19;;;;;;;2.63;0.80;;;9.50;99.90;;;;;;4993038;28;20054;-68
2022/09/27 02:32:45;;;;;;;8.38;1.02;;;9.50;99.90;;;;;;4992474;28;20091;-71
2022/09/27 02:35:36;;;;;;;2.45;0.93;;;9.50;99.90;;;;;;4992821;28;20050;-70
2022/09/27 02:38:05;;;;;;;3.20;1.80;;;9.50;99.90;;;;;;4992340;28;20092;-67
2022/09/27 02:40:33;;;;;;;5.30;0.90;;;9.50;99.90;;;;;;4992204;28;20050;-71
2022/09/27 02:43:01;;;;;;;1.58;0.47;;;9.50;99.90;;;;;;4992417;28;20054;-69
2022/09/27 02:45:41;;;;;;;1.98;0.60;;;9.50;99.90;;;;;;4992592;28;20085;-68
2022/09/27 02:48:34;;;;;;;5.57;0.82;;;9.50;99.90;;;;;;4976523;28;20066;-69
2022/09/27 02:51:21;;;;;;;5.90;0.98;;;9.40;99.90;;;;;;4961474;28;20134;-67
2022/09/27 02:54:02;;;;;;;5.40;0.80;;;9.50;99.90;;;;;;4991893;28;20046;-67
2022/09/27 02:56:43;;;;;;;5.57;0.88;;;9.40;99.90;;;;;;4995644;28;20085;-69
2022/09/27 02:59:25;;;;;;;5.78;0.70;;;9.40;99.90;;;;;;5014078;28;20049;-69
2022/09/27 03:02:00;;;;;;;;;;;9.40;99.90;;;;;;5013364;28;20489;-68
2022/09/27 03:04:49;;;;;;;2.22;0.50;;;9.40;99.90;;;;;;5014453;28;19925;-69
2022/09/27 03:07:16;;;;;;;4.60;0.77;;;9.60;99.90;;;;;;5013869;28;20508;-67
2022/09/27 03:09:47;;;;;;;2.95;0.57;;;9.30;99.90;;;;;;5012404;28;20042;-66
2022/09/27 03:12:19;;;;;;;3.00;0.57;;;9.30;99.90;;;;;;5013242;28;20045;-69
2022/09/27 03:14:45;;;;;;;2.50;0.57;;;9.30;99.90;;;;;;5013648;28;20582;-67
2022/09/27 03:17:11;;;;;;;2.25;0.63;;;9.30;99.90;;;;;;5012576;28;20136;-67
2022/09/27 03:19:37;;;;;;;3.38;0.70;;;9.30;99.90;;;;;;5012535;28;20137;-68
2022/09/27 03:22:02;;;;;;;4.25;0.55;;;9.30;99.90;;;;;;5013558;28;20516;-69
2022/09/27 03:24:28;;;;;;;3.03;0.55;;;9.50;99.90;;;;;;5013913;28;20557;-67
2022/09/27 03:26:53;;;;;;;1.17;0.40;;;9.30;99.90;;;;;;5012003;28;20046;-68
2022/09/27 03:29:19;;;;;;;4.00;0.52;;;9.60;99.90;;;;;;5012242;28;20084;-68
2022/09/27 03:31:45;;;;;;;0.95;0.43;;;9.30;99.90;;;;;;5025108;28;20057;-68
2022/09/27 03:34:11;;;;;;;4.30;0.75;;;9.30;99.90;;;;;;5015569;28;20096;-68
2022/09/27 03:36:36;;;;;;;2.42;0.40;;;9.30;99.90;;;;;;5015656;28;20104;-69
2022/09/27 03:39:02;;;;;;;3.30;0.60;;;9.30;99.90;;;;;;5014201;28;20415;-69
2022/09/27 03:41:28;;;;;;;4.43;0.55;;;9.30;99.90;;;;;;5015127;28;20045;-70
2022/09/27 03:43:56;;;;;;;3.50;0.85;;;9.30;99.90;;;;;;5015240;28;20054;-66
2022/09/27 03:46:22;;;;;;;3.40;0.50;;;9.30;99.90;;;;;;5015147;28;20053;-69
2022/09/27 03:48:48;;;;;;;4.47;0.60;;;9.30;99.90;;;;;;5033051;28;20057;-69
2022/09/27 03:51:13;;;;;;;2.13;0.63;;;9.30;99.90;;;;;;5015492;28;20393;-67
2022/09/27 03:53:39;;;;;;;4.22;0.85;;;9.20;99.90;;;;;;5033068;28;20510;-67
2022/09/27 03:56:05;;;;;;;3.28;0.70;;;9.20;99.90;;;;;;5033269;28;20488;-66
2022/09/27 03:58:30;;;;;;;9.02;0.68;;;9.20;99.90;;;;;;5032334;28;20077;-67
2022/09/27 04:00:56;;;;;;;3.97;0.63;;;9.20;99.90;;;;;;5015026;28;20042;-68
2022/09/27 04:03:21;;;;;;;5.40;0.80;;;9.20;99.90;;;;;;5032894;28;20412;-68
2022/09/27 04:05:47;;;;;;;2.92;0.43;;;9.20;99.90;;;;;;5031758;28;20073;-72
2022/09/27 04:08:13;;;;;;;7.80;2.20;;;9.20;99.90;;;;;;5014849;28;20099;-68
2022/09/27 04:10:38;;;;;;;2.65;0.50;;;9.20;99.90;;;;;;5015104;28;20158;-67
2022/09/27 04:13:05;;;;;;;4.60;0.60;;;9.20;99.90;;;;;;5014679;28;20141;-66
2022/09/27 04:15:31;;;;;;;2.60;0.50;;;9.20;99.90;;;;;;5032457;28;20132;-68
2022/09/27 04:17:56;;;;;;;4.85;0.70;;;9.20;99.90;;;;;;5015042;28;20045;-69
2022/09/27 04:20:22;;;;;;;1.85;0.80;;;9.30;99.90;;;;;;5014792;28;20053;-69
2022/09/27 04:22:48;;;;;;;4.43;0.60;;;9.20;99.90;;;;;;5015106;28;20049;-70
2022/09/27 04:25:13;;;;;;;4.07;0.57;;;9.20;99.90;;;;;;5032365;28;20099;-70
2022/09/27 04:27:44;;;;;;;5.18;1.05;;;9.10;99.90;;;;;;5014964;28;20088;-70
2022/09/27 04:30:10;;;;;;;1.77;0.47;;;9.10;99.90;;;;;;5013406;28;20099;-69
2022/09/27 04:32:41;;;;;;;2.55;0.60;;;9.10;99.90;;;;;;5014390;28;20089;-71
2022/09/27 04:37:51;;;;;;;2.83;0.60;;;9.10;99.90;;;;;;5014425;28;20489;-68
2022/09/27 04:40:18;;;;;;;4.50;0.70;;;9.10;99.90;;;;;;4997582;28;20108;-69
2022/09/27 04:42:44;;;;;;;3.40;0.55;;;9.10;99.90;;;;;;5032494;28;20099;-70
2022/09/27 04:45:10;;;;;;;5.45;1.38;;;9.10;99.90;;;;;;5032102;28;20041;-69
2022/09/27 04:47:36;;;;;;;1.88;0.85;;;9.10;99.90;;;;;;5032341;28;20192;-69
2022/09/27 04:50:01;;;;;;;1.90;0.60;;;9.10;99.90;;;;;;5032516;28;20045;-69
2022/09/27 04:52:27;;;;;;;3.25;0.55;;;9.00;99.90;;;;;;5032558;28;20469;-70
2022/09/27 04:54:53;;;;;;;2.45;0.55;;;9.30;99.90;;;;;;5031735;28;20102;-70
2022/09/27 04:57:18;;;;;;;4.28;1.00;;;9.00;99.90;;;;;;5014745;28;20056;-71
2022/09/27 04:59:44;;;;;;;1.42;0.50;;;9.00;99.90;;;;;;5013979;28;20053;-69
2022/09/27 05:02:10;;;;;;;4.60;0.60;;;9.00;99.90;;;;;;4997837;28;20414;-69
2022/09/27 05:04:35;;;;;;;3.55;0.70;;;8.90;99.90;;;;;;5031659;28;20045;-71
2022/09/27 05:07:01;;;;;;;5.35;0.65;;;8.90;99.90;;;;;;5032058;28;20041;-71
2022/09/27 05:09:27;;;;;;;6.25;0.70;;;8.90;99.90;;;;;;5014361;28;20088;-71
2022/09/27 05:11:52;;;;;;;5.93;0.68;;;9.70;99.90;;;;;;5032224;28;20044;-69
2022/09/27 05:14:19;;;;;;;2.88;0.57;;;8.90;99.90;;;;;;5014591;28;20051;-69
2022/09/27 05:16:45;;;;;;;3.95;0.73;;;8.90;99.90;;;;;;5015092;28;20065;-70
2022/09/27 05:19:10;;;;;;;2.53;0.50;;;8.90;99.90;;;;;;5035633;28;20044;-70
2022/09/27 05:21:36;;;;;;;3.17;0.70;;;8.90;99.90;;;;;;5018162;28;20107;-69
2022/09/27 05:24:01;;;;;;;4.13;0.50;;;9.20;99.90;;;;;;5018237;28;20048;-69
2022/09/27 05:26:27;;;;;;;2.92;0.80;;;9.10;99.90;;;;;;5035197;28;20057;-68
2022/09/27 05:28:52;;;;;;;3.22;0.55;;;8.90;99.90;;;;;;5017701;28;20049;-68
2022/09/27 05:31:18;;;;;;;2.70;0.70;;;8.90;99.90;;;;;;5034652;28;20061;-69
2022/09/27 05:33:44;;;;;;;2.22;0.50;;;8.90;99.90;;;;;;5035509;28;20045;-68
2022/09/27 05:36:09;;;;;;;2.33;0.50;;;8.90;99.90;;;;;;5017706;28;20056;-71
2022/09/27 05:38:35;;;;;;;3.60;0.60;;;8.90;99.90;;;;;;5035476;28;20526;-70
2022/09/27 05:41:02;;;;;;;2.38;0.60;;;8.90;99.90;;;;;;5017905;28;20467;-70
2022/09/27 05:43:27;;;;;;;2.83;0.73;;;8.90;99.90;;;;;;5017885;28;20045;-71
2022/09/27 05:45:53;;;;;;;3.60;0.60;;;9.10;99.90;;;;;;5017300;28;20055;-70
2022/09/27 05:48:20;;;;;;;5.18;0.77;;;9.10;99.90;;;;;;5016883;28;20045;-69
2022/09/27 05:50:46;;;;;;;6.07;0.55;;;8.90;99.90;;;;;;5033464;28;20057;-68
2022/09/27 05:53:12;;;;;;;2.67;0.45;;;8.90;99.90;;;;;;5017314;28;20107;-69
2022/09/27 05:55:38;;;;;;;1.65;0.60;;;8.90;99.90;;;;;;5017767;28;20132;-69
2022/09/27 05:58:06;;;;;;;4.05;0.93;;;9.10;99.90;;;;;;5035311;28;20117;-70
2022/09/27 06:00:33;;;;;;;7.32;0.80;;;9.00;99.90;;;;;;5017142;28;20569;-71
2022/09/27 06:03:01;;;;;;;5.65;1.30;;;9.00;99.90;;;;;;5016571;28;20045;-68
2022/09/27 06:05:30;;;;;;;4.22;1.45;;;9.00;99.90;;;;;;5016975;28;20401;-69
2022/09/27 06:08:01;;;;;;;5.10;1.48;;;9.10;99.90;;;;;;5017188;28;20128;-69
2022/09/27 06:10:28;;;;;;;3.22;1.08;;;9.00;99.90;;;;;;5033260;28;20053;-69
2022/09/27 06:13:01;;;;;;;3.40;0.88;;;9.20;99.90;;;;;;5000649;28;20052;-70
2022/09/27 06:15:28;;;;;;;4.97;1.17;;;9.10;99.90;;;;;;5000820;28;20477;-69
2022/09/27 06:17:55;;;;;;;3.58;0.73;;;9.20;99.90;;;;;;5034372;28;20404;-70
2022/09/27 06:20:20;;;;;;;4.35;0.90;;;9.30;99.90;;;;;;5034620;28;20370;-69
2022/09/27 06:22:46;;;;;;;1.58;0.68;;;9.20;99.90;;;;;;5034867;28;20052;-68
2022/09/27 06:25:12;;;;;;;1.38;0.50;;;9.20;99.90;;;;;;5034870;28;20033;-70
2022/09/27 06:27:38;;;;;;;1.77;0.45;;;9.20;99.90;;;;;;5034028;28;20045;-70
2022/09/27 06:30:04;;;;;;;1.98;0.40;;;9.20;99.90;;;;;;5016498;28;20102;-68
2022/09/27 06:32:30;;;;;;;4.90;0.82;;;9.20;99.90;;;;;;5033926;28;20578;-69
2022/09/27 06:34:56;;;;;;;4.43;0.60;;;9.20;99.90;;;;;;5034137;28;20041;-70
2022/09/27 06:37:25;;;;;;;2.53;0.70;;;9.20;99.90;;;;;;5034503;28;20045;-70
2022/09/27 06:39:52;;;;;;;3.30;0.70;;;9.40;99.90;;;;;;5016496;28;20505;-70
2022/09/27 06:42:19;;;;;;;1.27;0.55;;;9.30;99.90;;;;;;5025851;28;20041;-68
2022/09/27 06:44:48;;;;;;;1.75;0.47;;;9.30;99.90;;;;;;5014672;28;20064;-70
2022/09/27 06:47:15;;;;;;;1.60;0.40;;;9.40;99.90;;;;;;5013340;28;20409;-71
2022/09/27 06:49:41;;;;;;;2.15;0.60;;;9.30;99.90;;;;;;5006798;28;20394;-71
2022/09/27 06:52:07;;;;;;;1.30;0.40;;;9.30;99.90;;;;;;5008950;28;20088;-68
2022/09/27 06:54:32;;;;;;;2.17;0.43;;;9.30;99.90;;;;;;5024763;28;20409;-70
2022/09/27 06:56:58;;;;;;;2.67;0.90;;;9.30;99.90;;;;;;5028417;28;20129;-69
2022/09/27 07:02:08;;;;;;;2.70;0.55;;;9.30;99.90;;;;;;5031801;28;20046;-71
2022/09/27 07:04:33;;;;;;;0.98;0.43;;;9.30;99.90;;;;;;5027861;28;20053;-68
2022/09/27 07:06:59;;;;;;;1.02;0.40;;;9.50;99.90;;;;;;5014381;28;20508;-69
2022/09/27 07:09:25;;;;;;;1.60;0.65;;;9.40;99.90;;;;;;5013649;28;20097;-67
2022/09/27 07:11:54;;;;;;;3.70;0.40;;;9.40;99.90;;;;;;5001638;28;20128;-68
2022/09/27 07:14:23;;;;;;;2.08;1.23;;;9.40;99.90;;;;;;5029332;28;20395;-69
2022/09/27 07:16:49;;;;;;;1.30;0.65;;;9.40;99.90;;;;;;5011522;28;20107;-70
2022/09/27 07:19:17;;;;;;;1.42;0.40;;;9.10;99.90;;;;;;5011413;28;20076;-68
2022/09/27 07:21:43;;;;;;;1.15;0.40;;;9.90;99.90;;;;;;5032316;28;20107;-68
2022/09/27 07:24:09;;;;;;;2.78;0.52;;;9.60;99.90;;;;;;5025580;28;20041;-66
2022/09/27 07:26:37;;;;;;;1.27;0.45;;;9.60;99.90;;;;;;5028766;28;20033;-67
2022/09/27 07:29:03;;;;;;;2.30;0.47;;;9.70;99.90;;;;;;5021007;28;20485;-68
2022/09/27 07:31:29;;;;;;;3.88;0.70;;;10.10;99.90;;;;;;5020173;28;20061;-69
2022/09/27 07:33:54;;;;;;;0.57;0.38;;;9.80;99.90;;;;;;5025079;28;20053;-67
2022/09/27 07:36:20;;;;;;;2.67;0.68;;;10.10;99.90;;;;;;5027406;28;20091;-66
2022/09/27 07:38:46;;;;;;;6.65;0.95;;;9.90;99.90;;;;;;5021554;28;20045;-67
2022/09/27 07:41:13;;;;;;;2.45;0.57;;;9.90;99.90;;;;;;5006550;28;20391;-68
2022/09/27 07:43:45;;;;;;;2.22;0.47;;;9.90;99.90;;;;;;5012937;28;20060;-70
2022/09/27 07:46:10;;;;;;;3.97;0.80;;;9.90;99.90;;;;;;5010411;28;20137;-67
2022/09/27 07:48:36;;;;;;;5.57;0.73;;;10.00;99.90;;;;;;5009374;28;20151;-68
2022/09/27 07:51:02;;;;;;;4.13;0.70;;;10.00;99.90;;;;;;5033000;28;20056;-68
2022/09/27 07:53:27;;;;;;;1.88;0.52;;;10.00;99.90;;;;;;5015005;28;20045;-68
2022/09/27 07:55:53;;;;;;;2.50;0.70;;;10.00;99.90;;;;;;5032837;28;20049;-67
2022/09/27 07:58:25;;;;;;;3.55;0.68;;;10.10;99.90;;;;;;5007300;28;20404;-66
2022/09/27 08:00:52;;;;;;;3.67;0.75;;;10.10;99.90;;;;;;4995584;28;20141;-69
2022/09/27 08:03:18;;;;;;;3.75;0.52;;;10.10;99.90;;;;;;5006124;28;20057;-67
2022/09/27 08:05:46;;;;;;;4.22;0.63;;;10.60;99.90;;;;;;5002698;28;20442;-67
2022/09/27 08:08:12;;;;;;;1.80;0.60;;;10.30;99.90;;;;;;5004166;28;20060;-66
2022/09/27 08:10:43;;;;;;;1.55;0.50;;;10.40;99.90;;;;;;5019139;28;20108;-65
2022/09/27 08:13:10;;;;;;;2.00;0.45;;;10.50;99.90;;;;;;5001611;28;20496;-70
2022/09/27 08:15:37;;;;;;;3.97;0.55;;;10.60;99.90;;;;;;5024539;28;20052;-69
2022/09/27 08:18:04;;;;;;;2.08;0.50;;;10.60;99.90;;;;;;5021960;28;20045;-68
2022/09/27 08:20:30;;;;;;;3.00;0.50;;;10.70;99.90;;;;;;5025190;28;20497;-69
2022/09/27 08:22:56;;;;;;;3.05;0.50;;;10.70;99.90;;;;;;5024141;28;20144;-68
2022/09/27 08:25:23;;;;;;;4.25;0.60;;;10.80;99.90;;;;;;5026678;28;20037;-66
2022/09/27 08:27:59;;;;;;;2.70;0.40;;;10.80;99.90;;;;;;5028510;28;20068;-65
2022/09/27 08:30:27;;;;;;;3.80;0.75;;;11.30;99.90;;;;;;5004121;28;20045;-65
2022/09/27 08:32:57;;;;;;;4.32;0.50;;;10.70;99.90;;;;;;5006276;28;20128;-66
2022/09/27 08:35:23;;;;;;;2.17;0.68;;;10.80;99.90;;;;;;5005886;28;20034;-69
2022/09/27 08:37:56;;;;;;;1.25;0.40;;;10.80;99.90;;;;;;5008420;28;20156;-67
2022/09/27 08:40:26;;;;;;;2.40;0.43;;;10.80;99.90;;;;;;5027131;28;20374;-67
2022/09/27 08:42:58;;;;;;;1.40;0.57;;;10.90;99.90;;;;;;5022372;28;20093;-69
2022/09/27 08:45:39;;;;;;;1.98;0.50;;;10.90;99.90;;;;;;5023235;28;20187;-70
2022/09/27 08:48:05;;;;;;;2.35;0.55;;;11.00;99.90;;;;;;4988836;28;20057;-68
2022/09/27 08:51:22;;;;;;;;;;;;;;;;;;;;;
2022/09/27 08:54:01;;;;;;;1.55;0.60;;;11.10;99.90;;;;;;5009177;28;20080;-66
2022/09/27 08:56:27;;;;;;;2.38;0.30;;;11.10;99.90;;;;;;5011562;28;20136;-67
2022/09/27 08:59:03;;;;;;;3.22;0.50;;;11.10;99.90;;;;;;5006563;28;20097;-67
2022/09/27 09:01:29;;;;;;;1.50;0.43;;;11.30;99.90;;;;;;4992092;28;20045;-68
2022/09/27 09:04:03;;;;;;;2.85;0.50;;;11.50;99.90;;;;;;5007377;28;20056;-66
2022/09/27 09:07:22;;;;;;;3.03;0.60;;;11.30;99.90;;;;;;5016533;28;20049;-68
2022/09/27 09:12:45;;;;;;;4.10;0.50;;;11.30;99.90;;;;;;5006694;28;21285;-69
2022/09/27 09:13:45;;;;;;;1.98;0.60;;;11.30;99.90;;;;;;5012641;28;20473;-70
2022/09/27 09:16:27;;;;;;;1.13;0.50;;;11.50;99.90;;;;;;4989007;28;20513;-69
2022/09/27 09:19:02;;;;;;;1.15;0.50;;;11.90;99.90;;;;;;5015358;28;20054;-71
2022/09/27 09:22:18;;;;;;;1.08;0.35;;;11.60;99.90;;;;;;5004492;28;20061;-69
2022/09/27 09:24:56;;;;;;;0.75;0.40;;;11.70;99.90;;;;;;4954565;28;20054;-66
2022/09/27 09:27:27;;;;;;;3.45;0.43;;;12.10;99.90;;;;;;4964399;28;20062;-66
2022/09/27 09:30:29;;;;;;;6.78;0.63;;;11.80;99.90;;;;;;4980836;28;20629;-65
2022/09/27 09:33:37;;;;;;;0.20;0.20;;;11.80;99.90;;;;;;4973374;28;20489;-69
2022/09/27 09:36:28;;;;;;;4.03;0.40;;;11.80;99.90;;;;;;4890960;29;20056;-73
2022/09/27 09:39:02;;;;;;;0.98;0.40;;;11.80;99.90;;;;;;4889503;29;20056;-67
2022/09/27 09:41:40;;;;;;;0.52;0.25;;;11.90;99.90;;;;;;4883768;29;20060;-70
2022/09/27 09:44:22;;;;;;;0.98;0.30;;;11.80;99.90;;;;;;4888453;29;20148;-67
2022/09/27 09:47:00;;;;;;;1.88;0.50;;;12.20;99.90;;;;;;4888676;29;20056;-67
2022/09/27 09:49:52;;;;;;;0.90;0.40;;;11.80;99.90;;;;;;4895354;29;20139;-69
2022/09/27 09:52:23;;;;;;;2.83;0.60;;;12.10;99.90;;;;;;4889864;29;20049;-67
2022/09/27 09:55:25;;;;;;;1.02;0.28;;;12.10;99.90;;;;;;4889064;29;20054;-66
2022/09/27 09:58:13;;;;;;;2.70;0.50;;;12.30;99.90;;;;;;4835780;29;20061;-68
2022/09/27 10:00:48;;;;;;;1.63;0.40;;;12.40;99.90;;;;;;4863087;29;20139;-68
2022/09/27 10:03:19;;;;;;;4.85;0.50;;;12.90;99.90;;;;;;4862970;29;20076;-67
2022/09/27 10:05:48;;;;;;;5.25;0.65;;;12.80;99.90;;;;;;4868007;29;20068;-66
2022/09/27 10:08:23;;;;;;;0.70;0.40;;;12.80;99.90;;;;;;4853940;29;20071;-75
2022/09/27 10:10:51;;;;;;;4.15;0.50;;;12.80;99.90;;;;;;4848051;29;20112;-67
2022/09/27 10:13:19;;;;;;;2.17;0.30;;;12.80;99.90;;;;;;4907506;29;20133;-77
2022/09/27 10:16:15;;;;;;;3.45;0.65;;;12.80;99.90;;;;;;4925766;29;20055;-69
2022/09/27 10:18:48;;;;;;;3.60;0.63;;;12.50;99.90;;;;;;4928262;29;20047;-68
2022/09/27 10:21:26;;;;;;;0.90;0.77;;;12.80;99.90;;;;;;4925094;29;20071;-67
2022/09/27 10:24:24;;;;;;;3.60;0.57;;;12.90;99.90;;;;;;4924170;29;20043;-69
2022/09/27 10:26:58;;;;;;;3.13;0.80;;;12.90;99.90;;;;;;4920195;29;20047;-70
2022/09/27 10:29:30;;;;;;;1.85;0.32;;;13.00;99.90;;;;;;4920664;29;20414;-69
2022/09/27 10:32:03;;;;;;;2.78;0.47;;;13.10;99.90;;;;;;4919825;29;20055;-68
2022/09/27 10:34:40;;;;;;;1.80;0.52;;;13.30;99.90;;;;;;4991049;28;20049;-70
2022/09/27 10:37:17;;;;;;;1.48;0.50;;;13.40;99.90;;;;;;5030879;28;20509;-71
2022/09/27 10:39:49;;;;;;;1.52;0.50;;;13.80;99.90;;;;;;4989464;28;20042;-68
2022/09/27 10:42:41;;;;;;;1.60;0.40;;;14.00;99.90;;;;;;4984979;28;20114;-69
2022/09/27 10:45:39;;;;;;;2.60;1.27;;;14.20;99.90;;;;;;5002402;28;20188;-67
2022/09/27 10:48:23;;;;;;;2.60;0.60;;;14.50;99.90;;;;;;4989659;28;20046;-68
2022/09/27 10:51:00;;;;;;;2.47;0.47;;;14.60;99.90;;;;;;4985729;28;20053;-70
2022/09/27 10:53:32;;;;;;;1.83;0.40;;;14.40;99.90;;;;;;4994370;28;20496;-69
2022/09/27 10:56:05;;;;;;;1.20;0.40;;;13.90;99.90;;;;;;4993063;28;20060;-70
2022/09/27 10:58:38;;;;;;;1.70;0.40;;;13.50;99.90;;;;;;4993770;28;20127;-69
2022/09/27 11:01:11;;;;;;;0.98;0.40;;;13.30;99.90;;;;;;4990918;28;20041;-71
2022/09/27 11:03:53;;;;;;;4.07;0.60;;;12.90;99.90;;;;;;5004551;28;20127;-84
2022/09/27 11:06:18;;;;;;;3.63;1.15;;;12.70;99.90;;;;;;4980220;28;20145;-71
2022/09/27 11:08:48;;;;;;;3.67;0.52;;;12.40;99.90;;;;;;5028685;28;20129;-72
2022/09/27 11:11:13;;;;;;;2.22;0.60;;;12.50;99.90;;;;;;5000835;28;20045;-70
2022/09/27 11:14:03;;;;;;;2.03;0.60;;;12.10;99.90;;;;;;5003449;28;20678;-72
2022/09/27 11:16:50;;;;;;;3.47;1.00;;;11.80;99.90;;;;;;5003516;28;20077;-70
2022/09/27 11:19:31;;;;;;;1.50;0.43;;;11.60;99.90;;;;;;4985102;28;20065;-70
2022/09/27 11:22:26;;;;;;;1.45;0.30;;;11.60;99.90;;;;;;4990262;28;20049;-70
2022/09/27 11:25:14;;;;;;;3.03;0.35;;;11.50;99.90;;;;;;5024151;28;20183;-69
2022/09/27 11:28:06;;;;;;;0.98;0.28;;;11.40;99.90;;;;;;5022626;28;20187;-72
2022/09/27 11:30:47;;;;;;;0.75;0.30;;;11.30;99.90;;;;;;5025289;28;20564;-70
2022/09/27 11:33:53;;;;;;;1.38;0.38;;;11.30;99.90;;;;;;5013049;28;20046;-71
2022/09/27 11:36:37;;;;;;;0.30;0.30;;;11.50;99.90;;;;;;4995098;28;20144;-71
2022/09/27 11:39:11;;;;;;;0.57;0.30;;;11.40;99.90;;;;;;5010865;28;20397;-71
2022/09/27 11:42:13;;;;;;;0.65;0.28;;;11.40;99.90;;;;;;5011657;28;20056;-71
2022/09/27 11:44:53;;;;;;;1.65;0.40;;;11.40;99.90;;;;;;5012473;28;20046;-70
2022/09/27 11:47:28;;;;;;;2.25;0.28;;;11.40;99.90;;;;;;4995431;28;20053;-71
2022/09/27 11:50:25;;;;;;;0.20;0.20;;;11.50;99.90;;;;;;4979101;28;20131;-69
2022/09/27 11:53:59;;;;;;;0.73;0.35;;;11.60;99.90;;;;;;4864455;28;20448;-91
2022/09/27 11:57:25;;;;;;;0.50;0.30;;;11.90;99.90;;;;;;4905764;28;20476;-82
2022/09/27 12:01:03;;;;;;;1.67;0.38;;;12.20;99.90;;;;;;4876050;28;20456;-79
2022/09/27 12:04:14;;;;;;;1.80;0.50;;;12.60;99.90;;;;;;4800051;29;20975;-75
2022/09/27 12:07:25;;;;;;;0.65;0.40;;;12.90;99.90;;;;;;4761470;29;20518;-73
2022/09/27 12:20:42;;;;;;;0.65;0.30;;;13.00;99.90;;;;;;4869036;29;20079;-71
2022/09/27 12:23:39;;;;;;;2.55;0.30;;;13.10;99.90;;;;;;4831684;29;20296;-70
2022/09/27 12:52:08;;;;;;;;;;;;;;;;;;;;;
2022/09/27 12:55:07;;;;;;;1.65;0.40;;;13.10;99.90;;;;;;4904053;29;20134;-70
2022/09/27 13:01:40;;;;;;;0.80;0.32;;;13.80;99.90;;;;;;4886338;29;20058;-69
2022/09/27 13:04:37;;;;;;;1.20;0.50;;;14.00;99.90;;;;;;4886379;29;20092;-70
2022/09/27 13:07:46;;;;;;;0.93;0.40;;;13.90;99.90;;;;;;4874757;29;20060;-72
2022/09/27 13:20:50;;;;;;;1.60;0.43;;;13.10;99.90;;;;;;4860720;29;20045;-71
2022/09/27 13:35:28;;;;;;;0.80;0.40;;;12.50;99.90;;;;;;4877838;29;20056;-68
2022/09/27 14:00:46;;;;;;;0.55;0.30;;;11.70;99.90;;;;;;4984585;28;20108;-70
2022/09/27 14:03:36;;;;;;;2.08;0.40;;;11.40;99.90;;;;;;4966994;28;20165;-72
2022/09/27 14:06:07;;;;;;;1.35;0.35;;;11.30;99.90;;;;;;5028071;28;20053;-71
2022/09/27 14:08:59;;;;;;;1.65;0.40;;;11.20;99.90;;;;;;4995521;28;20108;-69
2022/09/27 14:11:41;;;;;;;1.30;0.50;;;11.20;99.90;;;;;;5009503;28;20064;-69
2022/09/27 14:14:20;;;;;;;1.17;0.30;;;11.30;99.90;;;;;;4995534;28;20148;-74
2022/09/27 14:16:53;;;;;;;1.30;0.40;;;11.40;99.90;;;;;;4994444;28;20524;-72
2022/09/27 14:19:29;;;;;;;2.00;0.50;;;11.70;99.90;;;;;;5029250;28;20136;-68
2022/09/27 14:21:57;;;;;;;1.65;0.30;;;11.70;99.90;;;;;;4995686;28;20053;-70
2022/09/27 14:24:34;;;;;;;0.90;0.30;;;12.00;99.90;;;;;;4998088;28;20132;-72
2022/09/27 14:27:28;;;;;;;0.30;0.28;;;11.70;99.90;;;;;;5010190;28;20049;-68
2022/09/27 14:30:18;;;;;;;1.20;0.40;;;11.70;99.90;;;;;;5014946;28;20048;-70
2022/09/27 14:33:17;;;;;;;2.90;0.30;;;11.70;99.90;;;;;;5004090;28;20044;-70
2022/09/27 14:38:47;;;;;;;0.20;0.20;;;11.60;99.90;;;;;;4995667;28;20452;-70
2022/09/27 14:41:14;;;;;;;2.03;0.25;;;11.20;99.90;;;;;;5006860;28;20041;-74
2022/09/27 14:43:49;;;;;;;0.30;0.30;;;11.00;99.90;;;;;;4996707;28;20124;-70
2022/09/27 14:46:27;;;;;;;0.20;0.20;;;10.50;99.90;;;;;;5026171;28;20144;-68
2022/09/27 14:48:54;;;;;;;1.00;0.32;;;10.30;99.90;;;;;;5012052;28;20107;-68
2022/09/27 14:51:27;;;;;;;0.47;0.35;;;10.20;99.90;;;;;;5014681;28;20064;-68
2022/09/27 14:54:00;;;;;;;0.38;0.20;;;10.00;99.90;;;;;;5029659;28;20038;-70
2022/09/27 14:56:36;;;;;;;0.77;0.30;;;9.90;99.90;;;;;;5027267;28;20080;-72
2022/09/27 14:59:22;;;;;;;2.08;0.40;;;9.90;99.90;;;;;;4992906;28;20049;-68
2022/09/27 15:01:50;;;;;;;0.60;0.25;;;10.10;99.90;;;;;;5027960;28;20091;-66
2022/09/27 15:04:16;;;;;;;2.75;0.28;;;9.80;99.90;;;;;;5012107;28;20143;-66
2022/09/27 15:06:45;;;;;;;3.15;0.40;;;9.70;99.90;;;;;;5021887;28;20062;-68
2022/09/27 15:09:18;;;;;;;0.75;0.40;;;9.90;99.90;;;;;;5006403;28;20137;-71
2022/09/27 15:11:50;;;;;;;0.20;0.20;;;10.00;99.90;;;;;;4994477;28;20037;-65
2022/09/27 15:14:18;;;;;;;;;;;9.90;99.90;;;;;;4998901;28;20136;-69
2022/09/27 15:16:46;;;;;;;0.22;0.22;;;9.60;99.90;;;;;;4987336;28;19917;-68